sensor_id;sensor_type;location;lat;lon;timestamp;P1;durP1;ratioP1;P2;durP2;ratioP2
29954;SDS011;68448;51.188;6.868;2024-03-07T00:00:07;75.43;;;33.37;;
29954;SDS011;68448;51.188;6.868;2024-03-07T00:02:38;75.90;;;32.37;;
29954;SDS011;68448;51.188;6.868;2024-03-07T00:05:05;78.53;;;34.60;;
29954;SDS011;68448;51.188;6.868;2024-03-07T00:07:33;89.77;;;37.00;;
29954;SDS011;68448;51.188;6.868;2024-03-07T00:10:00;82.27;;;38.97;;
29954;SDS011;68448;51.188;6.868;2024-03-07T00:12:27;91.27;;;38.67;;
29954;SDS011;68448;51.188;6.868;2024-03-07T00:14:54;89.63;;;35.83;;
29954;SDS011;68448;51.188;6.868;2024-03-07T00:17:21;84.83;;;35.30;;
29954;SDS011;68448;51.188;6.868;2024-03-07T00:19:50;89.17;;;37.20;;
29954;SDS011;68448;51.188;6.868;2024-03-07T00:22:17;90.30;;;39.20;;
29954;SDS011;68448;51.188;6.868;2024-03-07T00:24:44;87.03;;;37.30;;
29954;SDS011;68448;51.188;6.868;2024-03-07T00:27:11;88.50;;;36.30;;
29954;SDS011;68448;51.188;6.868;2024-03-07T00:29:39;83.50;;;37.97;;
29954;SDS011;68448;51.188;6.868;2024-03-07T00:32:06;99.43;;;37.80;;
29954;SDS011;68448;51.188;6.868;2024-03-07T00:34:33;94.47;;;39.07;;
29954;SDS011;68448;51.188;6.868;2024-03-07T00:37:02;94.37;;;40.37;;
29954;SDS011;68448;51.188;6.868;2024-03-07T00:39:29;111.63;;;40.33;;
29954;SDS011;68448;51.188;6.868;2024-03-07T00:41:56;107.53;;;40.03;;
29954;SDS011;68448;51.188;6.868;2024-03-07T00:44:23;90.43;;;38.97;;
29954;SDS011;68448;51.188;6.868;2024-03-07T00:46:50;114.20;;;41.97;;
29954;SDS011;68448;51.188;6.868;2024-03-07T00:49:18;94.77;;;38.50;;
29954;SDS011;68448;51.188;6.868;2024-03-07T00:51:45;87.63;;;37.60;;
29954;SDS011;68448;51.188;6.868;2024-03-07T00:54:14;104.97;;;40.53;;
29954;SDS011;68448;51.188;6.868;2024-03-07T00:56:41;97.60;;;38.40;;
29954;SDS011;68448;51.188;6.868;2024-03-07T00:59:08;94.50;;;36.53;;
29954;SDS011;68448;51.188;6.868;2024-03-07T01:01:35;89.53;;;37.30;;
29954;SDS011;68448;51.188;6.868;2024-03-07T01:04:03;80.40;;;37.03;;
29954;SDS011;68448;51.188;6.868;2024-03-07T01:06:30;98.20;;;39.60;;
29954;SDS011;68448;51.188;6.868;2024-03-07T01:08:57;93.90;;;38.90;;
29954;SDS011;68448;51.188;6.868;2024-03-07T01:11:26;91.87;;;37.07;;
29954;SDS011;68448;51.188;6.868;2024-03-07T01:13:53;90.93;;;38.77;;
29954;SDS011;68448;51.188;6.868;2024-03-07T01:16:20;86.83;;;33.47;;
29954;SDS011;68448;51.188;6.868;2024-03-07T01:18:48;88.90;;;35.87;;
29954;SDS011;68448;51.188;6.868;2024-03-07T01:21:15;82.10;;;34.90;;
29954;SDS011;68448;51.188;6.868;2024-03-07T01:23:42;84.93;;;35.37;;
29954;SDS011;68448;51.188;6.868;2024-03-07T01:26:09;97.83;;;36.97;;
29954;SDS011;68448;51.188;6.868;2024-03-07T01:28:38;81.77;;;35.70;;
29954;SDS011;68448;51.188;6.868;2024-03-07T01:31:05;95.47;;;35.90;;
29954;SDS011;68448;51.188;6.868;2024-03-07T01:33:32;93.30;;;35.90;;
29954;SDS011;68448;51.188;6.868;2024-03-07T01:35:59;85.20;;;36.43;;
29954;SDS011;68448;51.188;6.868;2024-03-07T01:38:27;95.77;;;38.40;;
29954;SDS011;68448;51.188;6.868;2024-03-07T01:40:54;85.07;;;34.47;;
29954;SDS011;68448;51.188;6.868;2024-03-07T01:43:21;87.13;;;37.40;;
29954;SDS011;68448;51.188;6.868;2024-03-07T01:45:49;87.77;;;33.63;;
29954;SDS011;68448;51.188;6.868;2024-03-07T01:48:23;100.07;;;38.40;;
29954;SDS011;68448;51.188;6.868;2024-03-07T01:50:52;101.63;;;36.97;;
29954;SDS011;68448;51.188;6.868;2024-03-07T01:53:19;87.77;;;34.40;;
29954;SDS011;68448;51.188;6.868;2024-03-07T01:55:47;78.27;;;34.80;;
29954;SDS011;68448;51.188;6.868;2024-03-07T01:58:14;93.63;;;36.67;;
29954;SDS011;68448;51.188;6.868;2024-03-07T02:00:43;93.37;;;38.43;;
29954;SDS011;68448;51.188;6.868;2024-03-07T02:03:13;87.30;;;38.70;;
29954;SDS011;68448;51.188;6.868;2024-03-07T02:05:40;103.53;;;39.17;;
29954;SDS011;68448;51.188;6.868;2024-03-07T02:08:07;92.43;;;38.20;;
29954;SDS011;68448;51.188;6.868;2024-03-07T02:10:35;94.33;;;41.03;;
29954;SDS011;68448;51.188;6.868;2024-03-07T02:13:02;94.80;;;37.57;;
29954;SDS011;68448;51.188;6.868;2024-03-07T02:15:29;90.17;;;35.60;;
29954;SDS011;68448;51.188;6.868;2024-03-07T02:17:56;79.10;;;37.17;;
29954;SDS011;68448;51.188;6.868;2024-03-07T02:20:25;99.07;;;38.30;;
29954;SDS011;68448;51.188;6.868;2024-03-07T02:22:54;88.93;;;38.10;;
29954;SDS011;68448;51.188;6.868;2024-03-07T02:25:22;96.20;;;37.60;;
29954;SDS011;68448;51.188;6.868;2024-03-07T02:27:49;97.67;;;39.10;;
29954;SDS011;68448;51.188;6.868;2024-03-07T02:30:16;90.97;;;36.07;;
29954;SDS011;68448;51.188;6.868;2024-03-07T02:32:43;91.00;;;35.57;;
29954;SDS011;68448;51.188;6.868;2024-03-07T02:35:11;82.13;;;36.70;;
29954;SDS011;68448;51.188;6.868;2024-03-07T02:37:38;89.03;;;33.73;;
29954;SDS011;68448;51.188;6.868;2024-03-07T02:40:07;77.30;;;33.70;;
29954;SDS011;68448;51.188;6.868;2024-03-07T02:42:34;104.23;;;38.50;;
29954;SDS011;68448;51.188;6.868;2024-03-07T02:45:02;82.40;;;35.10;;
29954;SDS011;68448;51.188;6.868;2024-03-07T02:47:30;77.47;;;35.30;;
29954;SDS011;68448;51.188;6.868;2024-03-07T02:49:57;74.47;;;33.37;;
29954;SDS011;68448;51.188;6.868;2024-03-07T02:52:25;76.80;;;34.73;;
29954;SDS011;68448;51.188;6.868;2024-03-07T02:54:52;78.17;;;31.87;;
29954;SDS011;68448;51.188;6.868;2024-03-07T02:57:21;69.90;;;29.97;;
29954;SDS011;68448;51.188;6.868;2024-03-07T02:59:48;62.40;;;29.00;;
29954;SDS011;68448;51.188;6.868;2024-03-07T03:02:15;81.00;;;30.80;;
29954;SDS011;68448;51.188;6.868;2024-03-07T03:04:42;66.67;;;30.10;;
29954;SDS011;68448;51.188;6.868;2024-03-07T03:07:09;62.50;;;28.43;;
29954;SDS011;68448;51.188;6.868;2024-03-07T03:09:37;69.27;;;30.70;;
29954;SDS011;68448;51.188;6.868;2024-03-07T03:12:04;66.50;;;30.67;;
29954;SDS011;68448;51.188;6.868;2024-03-07T03:14:32;69.20;;;30.33;;
29954;SDS011;68448;51.188;6.868;2024-03-07T03:17:00;65.17;;;30.23;;
29954;SDS011;68448;51.188;6.868;2024-03-07T03:19:27;66.53;;;31.30;;
29954;SDS011;68448;51.188;6.868;2024-03-07T03:21:54;69.60;;;31.40;;
29954;SDS011;68448;51.188;6.868;2024-03-07T03:24:21;71.00;;;30.97;;
29954;SDS011;68448;51.188;6.868;2024-03-07T03:26:49;57.33;;;29.10;;
29954;SDS011;68448;51.188;6.868;2024-03-07T03:29:16;68.63;;;30.13;;
29954;SDS011;68448;51.188;6.868;2024-03-07T03:31:45;69.90;;;30.53;;
29954;SDS011;68448;51.188;6.868;2024-03-07T03:34:12;71.40;;;31.53;;
29954;SDS011;68448;51.188;6.868;2024-03-07T03:36:39;68.17;;;29.70;;
29954;SDS011;68448;51.188;6.868;2024-03-07T03:39:07;62.17;;;29.53;;
29954;SDS011;68448;51.188;6.868;2024-03-07T03:41:34;64.00;;;30.27;;
29954;SDS011;68448;51.188;6.868;2024-03-07T03:44:01;68.63;;;32.63;;
29954;SDS011;68448;51.188;6.868;2024-03-07T03:46:29;70.73;;;31.63;;
29954;SDS011;68448;51.188;6.868;2024-03-07T03:48:57;63.63;;;31.30;;
29954;SDS011;68448;51.188;6.868;2024-03-07T03:51:24;66.20;;;30.43;;
29954;SDS011;68448;51.188;6.868;2024-03-07T03:53:51;81.37;;;34.97;;
29954;SDS011;68448;51.188;6.868;2024-03-07T03:56:19;63.27;;;30.97;;
29954;SDS011;68448;51.188;6.868;2024-03-07T03:58:46;67.93;;;31.80;;
29954;SDS011;68448;51.188;6.868;2024-03-07T04:01:13;68.17;;;30.87;;
29954;SDS011;68448;51.188;6.868;2024-03-07T04:03:41;71.87;;;31.17;;
29954;SDS011;68448;51.188;6.868;2024-03-07T04:06:09;65.33;;;29.37;;
29954;SDS011;68448;51.188;6.868;2024-03-07T04:08:36;75.93;;;33.03;;
29954;SDS011;68448;51.188;6.868;2024-03-07T04:11:03;68.63;;;31.63;;
29954;SDS011;68448;51.188;6.868;2024-03-07T04:13:31;66.30;;;30.40;;
29954;SDS011;68448;51.188;6.868;2024-03-07T04:15:58;66.23;;;30.47;;
29954;SDS011;68448;51.188;6.868;2024-03-07T04:18:26;59.03;;;28.30;;
29954;SDS011;68448;51.188;6.868;2024-03-07T04:20:53;69.23;;;31.30;;
29954;SDS011;68448;51.188;6.868;2024-03-07T04:23:22;73.80;;;33.30;;
29954;SDS011;68448;51.188;6.868;2024-03-07T04:25:49;68.10;;;29.23;;
29954;SDS011;68448;51.188;6.868;2024-03-07T04:28:17;58.40;;;28.80;;
29954;SDS011;68448;51.188;6.868;2024-03-07T04:30:44;63.17;;;30.27;;
29954;SDS011;68448;51.188;6.868;2024-03-07T04:33:11;120.60;;;42.33;;
29954;SDS011;68448;51.188;6.868;2024-03-07T04:35:38;124.93;;;43.80;;
29954;SDS011;68448;51.188;6.868;2024-03-07T04:38:06;70.40;;;32.43;;
29954;SDS011;68448;51.188;6.868;2024-03-07T04:40:34;67.03;;;32.10;;
29954;SDS011;68448;51.188;6.868;2024-03-07T04:43:01;73.23;;;30.47;;
29954;SDS011;68448;51.188;6.868;2024-03-07T04:45:28;74.63;;;33.13;;
29954;SDS011;68448;51.188;6.868;2024-03-07T04:47:56;65.63;;;31.57;;
29954;SDS011;68448;51.188;6.868;2024-03-07T04:50:24;66.63;;;28.30;;
29954;SDS011;68448;51.188;6.868;2024-03-07T04:52:51;75.50;;;34.00;;
29954;SDS011;68448;51.188;6.868;2024-03-07T04:55:19;71.77;;;31.97;;
29954;SDS011;68448;51.188;6.868;2024-03-07T04:57:47;58.23;;;30.43;;
29954;SDS011;68448;51.188;6.868;2024-03-07T05:00:15;72.43;;;30.20;;
29954;SDS011;68448;51.188;6.868;2024-03-07T05:02:44;68.73;;;31.17;;
29954;SDS011;68448;51.188;6.868;2024-03-07T05:05:12;74.53;;;30.83;;
29954;SDS011;68448;51.188;6.868;2024-03-07T05:07:40;66.40;;;32.60;;
29954;SDS011;68448;51.188;6.868;2024-03-07T05:10:08;71.67;;;32.43;;
29954;SDS011;68448;51.188;6.868;2024-03-07T05:12:35;71.87;;;32.73;;
29954;SDS011;68448;51.188;6.868;2024-03-07T05:15:06;78.43;;;34.27;;
29954;SDS011;68448;51.188;6.868;2024-03-07T05:17:33;75.57;;;34.23;;
29954;SDS011;68448;51.188;6.868;2024-03-07T05:20:01;77.50;;;34.70;;
29954;SDS011;68448;51.188;6.868;2024-03-07T05:22:28;81.60;;;33.27;;
29954;SDS011;68448;51.188;6.868;2024-03-07T05:24:55;74.97;;;31.70;;
29954;SDS011;68448;51.188;6.868;2024-03-07T05:27:22;69.20;;;31.03;;
29954;SDS011;68448;51.188;6.868;2024-03-07T05:29:49;67.90;;;29.63;;
29954;SDS011;68448;51.188;6.868;2024-03-07T05:32:21;66.37;;;30.90;;
29954;SDS011;68448;51.188;6.868;2024-03-07T05:34:49;74.57;;;32.80;;
29954;SDS011;68448;51.188;6.868;2024-03-07T05:37:17;77.07;;;35.30;;
29954;SDS011;68448;51.188;6.868;2024-03-07T05:39:44;84.90;;;34.43;;
29954;SDS011;68448;51.188;6.868;2024-03-07T05:42:11;73.87;;;32.47;;
29954;SDS011;68448;51.188;6.868;2024-03-07T05:44:38;77.13;;;32.23;;
29954;SDS011;68448;51.188;6.868;2024-03-07T05:47:06;76.43;;;31.57;;
29954;SDS011;68448;51.188;6.868;2024-03-07T05:49:34;78.40;;;34.20;;
29954;SDS011;68448;51.188;6.868;2024-03-07T05:52:01;68.70;;;29.67;;
29954;SDS011;68448;51.188;6.868;2024-03-07T05:54:29;80.03;;;34.17;;
29954;SDS011;68448;51.188;6.868;2024-03-07T05:56:56;75.47;;;34.83;;
29954;SDS011;68448;51.188;6.868;2024-03-07T05:59:23;76.47;;;33.37;;
29954;SDS011;68448;51.188;6.868;2024-03-07T06:01:50;66.30;;;31.70;;
29954;SDS011;68448;51.188;6.868;2024-03-07T06:04:18;87.13;;;34.80;;
29954;SDS011;68448;51.188;6.868;2024-03-07T06:06:46;81.43;;;34.10;;
29954;SDS011;68448;51.188;6.868;2024-03-07T06:09:14;75.60;;;34.67;;
29954;SDS011;68448;51.188;6.868;2024-03-07T06:11:41;81.90;;;34.10;;
29954;SDS011;68448;51.188;6.868;2024-03-07T06:14:09;74.87;;;32.40;;
29954;SDS011;68448;51.188;6.868;2024-03-07T06:16:36;84.40;;;34.17;;
29954;SDS011;68448;51.188;6.868;2024-03-07T06:19:04;78.07;;;34.40;;
29954;SDS011;68448;51.188;6.868;2024-03-07T06:21:36;74.17;;;33.20;;
29954;SDS011;68448;51.188;6.868;2024-03-07T06:24:05;86.43;;;35.40;;
29954;SDS011;68448;51.188;6.868;2024-03-07T06:26:33;79.03;;;34.13;;
29954;SDS011;68448;51.188;6.868;2024-03-07T06:29:00;87.93;;;36.30;;
29954;SDS011;68448;51.188;6.868;2024-03-07T06:31:28;101.67;;;37.90;;
29954;SDS011;68448;51.188;6.868;2024-03-07T06:33:55;79.67;;;34.43;;
29954;SDS011;68448;51.188;6.868;2024-03-07T06:36:22;85.93;;;36.17;;
29954;SDS011;68448;51.188;6.868;2024-03-07T06:38:49;87.77;;;37.13;;
29954;SDS011;68448;51.188;6.868;2024-03-07T06:41:18;79.87;;;36.30;;
29954;SDS011;68448;51.188;6.868;2024-03-07T06:43:45;79.27;;;35.33;;
29954;SDS011;68448;51.188;6.868;2024-03-07T06:46:13;86.70;;;34.70;;
29954;SDS011;68448;51.188;6.868;2024-03-07T06:48:40;86.17;;;36.93;;
29954;SDS011;68448;51.188;6.868;2024-03-07T06:51:07;78.77;;;35.43;;
29954;SDS011;68448;51.188;6.868;2024-03-07T06:53:34;84.20;;;35.47;;
29954;SDS011;68448;51.188;6.868;2024-03-07T06:56:02;82.67;;;39.00;;
29954;SDS011;68448;51.188;6.868;2024-03-07T06:58:30;85.27;;;36.13;;
29954;SDS011;68448;51.188;6.868;2024-03-07T07:00:59;81.77;;;35.53;;
29954;SDS011;68448;51.188;6.868;2024-03-07T07:03:26;80.53;;;35.03;;
29954;SDS011;68448;51.188;6.868;2024-03-07T07:05:53;66.73;;;30.30;;
29954;SDS011;68448;51.188;6.868;2024-03-07T07:08:21;64.33;;;31.27;;
29954;SDS011;68448;51.188;6.868;2024-03-07T07:10:48;77.83;;;34.70;;
29954;SDS011;68448;51.188;6.868;2024-03-07T07:13:16;71.70;;;33.10;;
29954;SDS011;68448;51.188;6.868;2024-03-07T07:15:45;64.90;;;31.60;;
29954;SDS011;68448;51.188;6.868;2024-03-07T07:18:12;63.17;;;32.03;;
29954;SDS011;68448;51.188;6.868;2024-03-07T07:20:39;64.30;;;30.50;;
29954;SDS011;68448;51.188;6.868;2024-03-07T07:23:06;65.30;;;28.90;;
29954;SDS011;68448;51.188;6.868;2024-03-07T07:25:34;59.00;;;30.30;;
29954;SDS011;68448;51.188;6.868;2024-03-07T07:28:02;64.17;;;28.10;;
29954;SDS011;68448;51.188;6.868;2024-03-07T07:30:29;68.93;;;30.50;;
29954;SDS011;68448;51.188;6.868;2024-03-07T07:32:58;57.57;;;29.20;;
29954;SDS011;68448;51.188;6.868;2024-03-07T07:35:25;66.97;;;29.87;;
29954;SDS011;68448;51.188;6.868;2024-03-07T07:37:52;62.97;;;26.73;;
29954;SDS011;68448;51.188;6.868;2024-03-07T07:40:20;64.50;;;27.87;;
29954;SDS011;68448;51.188;6.868;2024-03-07T07:42:48;64.50;;;28.10;;
29954;SDS011;68448;51.188;6.868;2024-03-07T07:45:16;54.23;;;27.80;;
29954;SDS011;68448;51.188;6.868;2024-03-07T07:47:43;49.93;;;24.73;;
29954;SDS011;68448;51.188;6.868;2024-03-07T07:50:13;46.13;;;25.47;;
29954;SDS011;68448;51.188;6.868;2024-03-07T07:52:40;52.67;;;26.63;;
29954;SDS011;68448;51.188;6.868;2024-03-07T07:55:08;48.03;;;26.70;;
29954;SDS011;68448;51.188;6.868;2024-03-07T07:57:35;45.97;;;23.80;;
29954;SDS011;68448;51.188;6.868;2024-03-07T08:00:02;54.43;;;26.43;;
29954;SDS011;68448;51.188;6.868;2024-03-07T08:02:37;45.93;;;22.93;;
29954;SDS011;68448;51.188;6.868;2024-03-07T08:05:06;43.13;;;22.43;;
29954;SDS011;68448;51.188;6.868;2024-03-07T08:07:37;47.07;;;22.40;;
29954;SDS011;68448;51.188;6.868;2024-03-07T08:10:04;37.77;;;21.73;;
29954;SDS011;68448;51.188;6.868;2024-03-07T08:12:31;42.93;;;21.20;;
29954;SDS011;68448;51.188;6.868;2024-03-07T08:14:59;34.30;;;20.77;;
29954;SDS011;68448;51.188;6.868;2024-03-07T08:17:26;43.90;;;22.87;;
29954;SDS011;68448;51.188;6.868;2024-03-07T08:19:53;37.37;;;19.77;;
29954;SDS011;68448;51.188;6.868;2024-03-07T08:22:20;40.40;;;18.33;;
29954;SDS011;68448;51.188;6.868;2024-03-07T08:24:49;34.00;;;19.77;;
29954;SDS011;68448;51.188;6.868;2024-03-07T08:27:16;36.63;;;19.70;;
29954;SDS011;68448;51.188;6.868;2024-03-07T08:29:43;31.63;;;18.07;;
29954;SDS011;68448;51.188;6.868;2024-03-07T08:32:10;30.67;;;19.23;;
29954;SDS011;68448;51.188;6.868;2024-03-07T08:34:37;35.40;;;17.60;;
29954;SDS011;68448;51.188;6.868;2024-03-07T08:37:05;32.40;;;17.33;;
29954;SDS011;68448;51.188;6.868;2024-03-07T08:39:32;28.57;;;17.20;;
29954;SDS011;68448;51.188;6.868;2024-03-07T08:42:00;32.60;;;17.87;;
29954;SDS011;68448;51.188;6.868;2024-03-07T08:44:28;28.53;;;15.93;;
29954;SDS011;68448;51.188;6.868;2024-03-07T08:46:55;34.50;;;17.40;;
29954;SDS011;68448;51.188;6.868;2024-03-07T08:49:22;31.27;;;15.70;;
29954;SDS011;68448;51.188;6.868;2024-03-07T08:51:49;28.20;;;15.87;;
29954;SDS011;68448;51.188;6.868;2024-03-07T08:54:16;26.93;;;16.07;;
29954;SDS011;68448;51.188;6.868;2024-03-07T08:56:43;28.13;;;16.13;;
29954;SDS011;68448;51.188;6.868;2024-03-07T08:59:12;31.07;;;15.70;;
29954;SDS011;68448;51.188;6.868;2024-03-07T09:01:39;25.70;;;16.50;;
29954;SDS011;68448;51.188;6.868;2024-03-07T09:04:06;28.47;;;16.63;;
29954;SDS011;68448;51.188;6.868;2024-03-07T09:06:33;27.30;;;15.20;;
29954;SDS011;68448;51.188;6.868;2024-03-07T09:09:00;27.50;;;14.83;;
29954;SDS011;68448;51.188;6.868;2024-03-07T09:11:27;24.50;;;15.30;;
29954;SDS011;68448;51.188;6.868;2024-03-07T09:13:55;26.87;;;15.07;;
29954;SDS011;68448;51.188;6.868;2024-03-07T09:16:23;26.27;;;14.30;;
29954;SDS011;68448;51.188;6.868;2024-03-07T09:18:50;23.47;;;13.23;;
29954;SDS011;68448;51.188;6.868;2024-03-07T09:21:18;27.07;;;15.03;;
29954;SDS011;68448;51.188;6.868;2024-03-07T09:23:45;25.67;;;14.70;;
29954;SDS011;68448;51.188;6.868;2024-03-07T09:26:12;25.47;;;15.53;;
29954;SDS011;68448;51.188;6.868;2024-03-07T09:28:39;23.87;;;15.03;;
29954;SDS011;68448;51.188;6.868;2024-03-07T09:31:06;25.53;;;15.17;;
29954;SDS011;68448;51.188;6.868;2024-03-07T09:33:35;26.47;;;15.90;;
29954;SDS011;68448;51.188;6.868;2024-03-07T09:36:02;18.77;;;13.67;;
29954;SDS011;68448;51.188;6.868;2024-03-07T09:38:29;23.70;;;13.23;;
29954;SDS011;68448;51.188;6.868;2024-03-07T09:40:57;24.93;;;13.83;;
29954;SDS011;68448;51.188;6.868;2024-03-07T09:43:24;22.77;;;14.67;;
29954;SDS011;68448;51.188;6.868;2024-03-07T09:45:53;23.97;;;14.57;;
29954;SDS011;68448;51.188;6.868;2024-03-07T09:48:21;23.20;;;14.10;;
29954;SDS011;68448;51.188;6.868;2024-03-07T09:50:50;22.40;;;13.80;;
29954;SDS011;68448;51.188;6.868;2024-03-07T09:53:19;21.57;;;13.97;;
29954;SDS011;68448;51.188;6.868;2024-03-07T09:55:46;22.23;;;13.40;;
29954;SDS011;68448;51.188;6.868;2024-03-07T09:58:14;21.30;;;13.80;;
29954;SDS011;68448;51.188;6.868;2024-03-07T10:00:43;19.93;;;13.80;;
29954;SDS011;68448;51.188;6.868;2024-03-07T10:03:11;18.27;;;12.83;;
29954;SDS011;68448;51.188;6.868;2024-03-07T10:05:39;20.30;;;13.77;;
29954;SDS011;68448;51.188;6.868;2024-03-07T10:08:08;23.90;;;14.37;;
29954;SDS011;68448;51.188;6.868;2024-03-07T10:10:35;24.50;;;15.13;;
29954;SDS011;68448;51.188;6.868;2024-03-07T10:13:02;20.10;;;12.73;;
29954;SDS011;68448;51.188;6.868;2024-03-07T10:15:30;18.23;;;12.53;;
29954;SDS011;68448;51.188;6.868;2024-03-07T10:17:57;20.03;;;13.27;;
29954;SDS011;68448;51.188;6.868;2024-03-07T10:20:24;22.20;;;13.87;;
29954;SDS011;68448;51.188;6.868;2024-03-07T10:22:52;25.30;;;14.07;;
29954;SDS011;68448;51.188;6.868;2024-03-07T10:25:20;22.43;;;15.03;;
29954;SDS011;68448;51.188;6.868;2024-03-07T10:27:47;25.23;;;14.83;;
29954;SDS011;68448;51.188;6.868;2024-03-07T10:30:15;20.50;;;14.10;;
29954;SDS011;68448;51.188;6.868;2024-03-07T10:32:44;26.90;;;17.00;;
29954;SDS011;68448;51.188;6.868;2024-03-07T10:35:11;24.90;;;15.80;;
29954;SDS011;68448;51.188;6.868;2024-03-07T10:37:38;26.80;;;15.37;;
29954;SDS011;68448;51.188;6.868;2024-03-07T10:40:06;23.43;;;15.27;;
29954;SDS011;68448;51.188;6.868;2024-03-07T10:42:35;18.97;;;13.40;;
29954;SDS011;68448;51.188;6.868;2024-03-07T10:45:03;19.53;;;13.03;;
29954;SDS011;68448;51.188;6.868;2024-03-07T10:47:32;21.10;;;14.17;;
29954;SDS011;68448;51.188;6.868;2024-03-07T10:50:03;19.63;;;14.03;;
29954;SDS011;68448;51.188;6.868;2024-03-07T10:52:40;27.23;;;15.00;;
29954;SDS011;68448;51.188;6.868;2024-03-07T10:55:12;17.70;;;13.73;;
29954;SDS011;68448;51.188;6.868;2024-03-07T10:57:45;16.50;;;13.17;;
29954;SDS011;68448;51.188;6.868;2024-03-07T11:00:16;23.27;;;15.47;;
29954;SDS011;68448;51.188;6.868;2024-03-07T11:02:45;19.77;;;14.50;;
29954;SDS011;68448;51.188;6.868;2024-03-07T11:05:13;20.70;;;13.90;;
29954;SDS011;68448;51.188;6.868;2024-03-07T11:07:41;24.67;;;14.80;;
29954;SDS011;68448;51.188;6.868;2024-03-07T11:10:09;23.27;;;14.07;;
29954;SDS011;68448;51.188;6.868;2024-03-07T11:12:36;21.47;;;14.53;;
29954;SDS011;68448;51.188;6.868;2024-03-07T11:15:07;22.73;;;14.90;;
29954;SDS011;68448;51.188;6.868;2024-03-07T11:17:35;20.80;;;13.90;;
29954;SDS011;68448;51.188;6.868;2024-03-07T11:20:18;20.20;;;14.37;;
29954;SDS011;68448;51.188;6.868;2024-03-07T11:22:45;19.80;;;13.97;;
29954;SDS011;68448;51.188;6.868;2024-03-07T11:25:12;16.43;;;12.00;;
29954;SDS011;68448;51.188;6.868;2024-03-07T11:27:39;17.20;;;12.40;;
29954;SDS011;68448;51.188;6.868;2024-03-07T11:30:10;15.87;;;11.37;;
29954;SDS011;68448;51.188;6.868;2024-03-07T11:32:38;20.20;;;12.17;;
29954;SDS011;68448;51.188;6.868;2024-03-07T11:35:06;15.60;;;13.07;;
29954;SDS011;68448;51.188;6.868;2024-03-07T11:37:38;16.87;;;11.87;;
29954;SDS011;68448;51.188;6.868;2024-03-07T11:40:06;18.77;;;12.00;;
29954;SDS011;68448;51.188;6.868;2024-03-07T11:42:33;15.90;;;12.43;;
29954;SDS011;68448;51.188;6.868;2024-03-07T11:45:01;20.60;;;13.07;;
29954;SDS011;68448;51.188;6.868;2024-03-07T11:47:35;16.23;;;11.93;;
29954;SDS011;68448;51.188;6.868;2024-03-07T11:50:03;16.37;;;12.33;;
29954;SDS011;68448;51.188;6.868;2024-03-07T11:52:30;17.00;;;12.93;;
29954;SDS011;68448;51.188;6.868;2024-03-07T11:54:57;20.30;;;13.17;;
29954;SDS011;68448;51.188;6.868;2024-03-07T11:57:25;14.17;;;12.10;;
29954;SDS011;68448;51.188;6.868;2024-03-07T11:59:52;22.13;;;13.50;;
29954;SDS011;68448;51.188;6.868;2024-03-07T12:02:20;17.10;;;12.53;;
29954;SDS011;68448;51.188;6.868;2024-03-07T12:04:48;21.50;;;13.53;;
29954;SDS011;68448;51.188;6.868;2024-03-07T12:07:15;18.57;;;13.20;;
29954;SDS011;68448;51.188;6.868;2024-03-07T12:09:43;19.60;;;13.23;;
29954;SDS011;68448;51.188;6.868;2024-03-07T12:12:10;14.07;;;11.63;;
29954;SDS011;68448;51.188;6.868;2024-03-07T12:14:38;15.93;;;12.10;;
29954;SDS011;68448;51.188;6.868;2024-03-07T12:17:05;14.73;;;11.10;;
29954;SDS011;68448;51.188;6.868;2024-03-07T12:19:32;18.43;;;11.00;;
29954;SDS011;68448;51.188;6.868;2024-03-07T12:22:01;15.30;;;10.60;;
29954;SDS011;68448;51.188;6.868;2024-03-07T12:24:29;13.23;;;9.60;;
29954;SDS011;68448;51.188;6.868;2024-03-07T12:29:42;12.83;;;9.57;;
29954;SDS011;68448;51.188;6.868;2024-03-07T12:32:11;21.63;;;14.80;;
29954;SDS011;68448;51.188;6.868;2024-03-07T12:34:39;17.53;;;11.47;;
29954;SDS011;68448;51.188;6.868;2024-03-07T12:37:08;12.67;;;9.30;;
29954;SDS011;68448;51.188;6.868;2024-03-07T12:39:35;17.47;;;11.30;;
29954;SDS011;68448;51.188;6.868;2024-03-07T12:42:03;20.40;;;10.80;;
29954;SDS011;68448;51.188;6.868;2024-03-07T12:44:39;15.77;;;10.30;;
29954;SDS011;68448;51.188;6.868;2024-03-07T12:47:06;16.10;;;10.90;;
29954;SDS011;68448;51.188;6.868;2024-03-07T12:49:35;13.10;;;9.90;;
29954;SDS011;68448;51.188;6.868;2024-03-07T12:52:02;14.07;;;8.77;;
29954;SDS011;68448;51.188;6.868;2024-03-07T12:54:31;13.30;;;9.00;;
29954;SDS011;68448;51.188;6.868;2024-03-07T12:56:58;12.43;;;8.90;;
29954;SDS011;68448;51.188;6.868;2024-03-07T12:59:25;12.97;;;8.60;;
29954;SDS011;68448;51.188;6.868;2024-03-07T13:01:53;11.47;;;8.30;;
29954;SDS011;68448;51.188;6.868;2024-03-07T13:04:20;15.60;;;8.30;;
29954;SDS011;68448;51.188;6.868;2024-03-07T13:06:47;11.37;;;8.17;;
29954;SDS011;68448;51.188;6.868;2024-03-07T13:09:14;9.77;;;7.07;;
29954;SDS011;68448;51.188;6.868;2024-03-07T13:11:43;10.10;;;7.33;;
29954;SDS011;68448;51.188;6.868;2024-03-07T13:14:10;10.50;;;7.80;;
29954;SDS011;68448;51.188;6.868;2024-03-07T13:16:37;13.83;;;7.97;;
29954;SDS011;68448;51.188;6.868;2024-03-07T13:19:04;10.20;;;7.43;;
29954;SDS011;68448;51.188;6.868;2024-03-07T13:21:32;13.13;;;9.33;;
29954;SDS011;68448;51.188;6.868;2024-03-07T13:23:59;11.27;;;9.17;;
29954;SDS011;68448;51.188;6.868;2024-03-07T13:26:26;14.93;;;8.17;;
29954;SDS011;68448;51.188;6.868;2024-03-07T13:28:56;13.03;;;9.37;;
29954;SDS011;68448;51.188;6.868;2024-03-07T13:31:23;13.97;;;9.80;;
29954;SDS011;68448;51.188;6.868;2024-03-07T13:33:50;12.77;;;9.00;;
29954;SDS011;68448;51.188;6.868;2024-03-07T13:36:18;16.17;;;8.50;;
29954;SDS011;68448;51.188;6.868;2024-03-07T13:38:46;14.30;;;8.60;;
29954;SDS011;68448;51.188;6.868;2024-03-07T13:41:13;13.27;;;9.30;;
29954;SDS011;68448;51.188;6.868;2024-03-07T13:43:41;14.27;;;9.10;;
29954;SDS011;68448;51.188;6.868;2024-03-07T13:46:09;13.50;;;9.50;;
29954;SDS011;68448;51.188;6.868;2024-03-07T13:48:36;12.77;;;9.57;;
29954;SDS011;68448;51.188;6.868;2024-03-07T13:51:04;13.80;;;10.90;;
29954;SDS011;68448;51.188;6.868;2024-03-07T13:53:31;13.30;;;9.23;;
29954;SDS011;68448;51.188;6.868;2024-03-07T13:56:12;14.97;;;10.07;;
29954;SDS011;68448;51.188;6.868;2024-03-07T13:58:50;13.80;;;10.80;;
29954;SDS011;68448;51.188;6.868;2024-03-07T14:01:30;12.97;;;9.50;;
29954;SDS011;68448;51.188;6.868;2024-03-07T14:04:11;13.20;;;9.00;;
29954;SDS011;68448;51.188;6.868;2024-03-07T14:06:44;13.90;;;9.07;;
29954;SDS011;68448;51.188;6.868;2024-03-07T14:09:36;12.47;;;9.30;;
29954;SDS011;68448;51.188;6.868;2024-03-07T14:12:15;13.47;;;9.23;;
29954;SDS011;68448;51.188;6.868;2024-03-07T14:17:49;12.67;;;9.00;;
29954;SDS011;68448;51.188;6.868;2024-03-07T14:23:08;11.13;;;7.80;;
29954;SDS011;68448;51.188;6.868;2024-03-07T14:25:43;18.10;;;10.70;;
29954;SDS011;68448;51.188;6.868;2024-03-07T14:28:20;12.60;;;8.57;;
29954;SDS011;68448;51.188;6.868;2024-03-07T14:30:55;10.87;;;8.17;;
29954;SDS011;68448;51.188;6.868;2024-03-07T14:33:25;10.97;;;7.70;;
29954;SDS011;68448;51.188;6.868;2024-03-07T14:36:00;8.90;;;6.70;;